East Maine, New York
Current Conditions -  °F | °C
As of 7:53 AM on Sunday 23 Nov 2014 (Local Time) from KBGM Reporting Station
Overcast Overcast  
Wind Chill: 37°   Ceiling: 4400
Heat Index: 42°   Visibility: 10mi
Dew Point: 28°   Wind: 8mph
Humidity: 58%   Direction: 220°SW
Pressure: 30.09"   Gusts: NA
Location:  42.1768°N, 76.0035°W
Report Text: KBGM 231253Z 22007KT 10SM OVC044 06/M02 A3009 RMK AO2 SLP200 T00561022
Loading
Personal Weather Stations






























Interactive Weather Map New forecast layout! Learn more

10-Day Weather Forecast

Advertisements
Track Severe Weather on mobile